createdAt,value
2023-02-11T00:01:38.684Z,103766.94
2023-02-11T00:04:07.212Z,103760.75
2023-02-11T00:06:35.585Z,103766.09
2023-02-11T00:09:03.746Z,103769.66
2023-02-11T00:11:31.628Z,103758.09
2023-02-11T00:13:59.592Z,103752.78
2023-02-11T00:16:27.498Z,103754.56
2023-02-11T00:18:57.141Z,103751.03
2023-02-11T00:21:26.134Z,103742.97
2023-02-11T00:23:54.972Z,103751.84
2023-02-11T00:26:23.704Z,103745.66
2023-02-11T00:28:51.762Z,103752.75
2023-02-11T00:31:20.278Z,103739.41
2023-02-11T00:33:48.310Z,103734.09
2023-02-11T00:36:18.526Z,103747.38
2023-02-11T00:38:46.641Z,103743.84
2023-02-11T00:41:18.149Z,103733.16
2023-02-11T00:43:46.071Z,103742.03
2023-02-11T00:46:14.495Z,103745.59
2023-02-11T00:48:42.448Z,103738.50
2023-02-11T00:51:10.393Z,103745.59
2023-02-11T00:53:39.645Z,103740.28
2023-02-11T00:56:07.878Z,103742.94
2023-02-11T00:58:35.791Z,103738.50
2023-02-11T01:01:03.715Z,103742.06
2023-02-11T01:03:31.641Z,103738.50
2023-02-11T01:05:59.540Z,103738.50
2023-02-11T01:08:27.444Z,103740.25
2023-02-11T01:10:57.839Z,103734.06
2023-02-11T01:13:25.843Z,103730.50
2023-02-11T01:15:53.941Z,103741.16
2023-02-11T01:18:22.030Z,103731.41
2023-02-11T01:20:49.938Z,103727.00
2023-02-11T01:23:17.815Z,103745.63
2023-02-11T01:25:45.751Z,103736.78
2023-02-11T01:28:17.627Z,103731.47
2023-02-11T01:30:45.717Z,103725.28
2023-02-11T01:33:13.814Z,103722.63
2023-02-11T01:35:41.701Z,103730.63
2023-02-11T01:38:09.823Z,103727.94
2023-02-11T01:40:37.752Z,103728.81
2023-02-11T01:43:05.601Z,103726.16
2023-02-11T01:45:58.975Z,103715.50
2023-02-11T01:48:29.039Z,103730.59
2023-02-11T01:51:00.162Z,103719.06
2023-02-11T01:53:53.877Z,103715.50
2023-02-11T01:56:39.530Z,103718.19
2023-02-11T01:59:09.051Z,103719.97
2023-02-11T02:01:38.360Z,103731.50
2023-02-11T02:04:06.268Z,103729.72
2023-02-11T02:06:35.739Z,103711.03
2023-02-11T02:09:05.120Z,103721.75
2023-02-11T02:11:32.984Z,103715.50
2023-02-11T02:14:00.920Z,103714.63
2023-02-11T02:16:31.583Z,103719.97
2023-02-11T02:19:11.675Z,103723.50
2023-02-11T02:21:59.782Z,103716.41
2023-02-11T02:24:50.698Z,103683.53
2023-02-11T02:27:42.894Z,103713.75
2023-02-11T02:30:22.395Z,103715.50
2023-02-11T02:33:23.901Z,103717.28
2023-02-11T02:35:56.577Z,103687.06
2023-02-11T02:38:26.036Z,103710.19
2023-02-11T02:40:56.935Z,103712.84
2023-02-11T02:43:25.066Z,103687.06
2023-02-11T02:45:53.000Z,103705.72
2023-02-11T02:48:29.128Z,103707.53
2023-02-11T02:51:00.989Z,103708.41
2023-02-11T02:53:33.325Z,103704.88
2023-02-11T02:56:02.530Z,103699.53
2023-02-11T02:58:48.277Z,103696.84
2023-02-11T03:01:21.508Z,103688.91
2023-02-11T03:03:54.090Z,103703.97
2023-02-11T03:06:27.913Z,103687.13
2023-02-11T03:08:57.954Z,103696.88
2023-02-11T03:11:25.838Z,103683.56
2023-02-11T03:13:53.776Z,103701.31
2023-02-11T03:16:23.151Z,103676.47
2023-02-11T03:18:55.551Z,103696.00
2023-02-11T03:21:23.456Z,103694.19
2023-02-11T03:23:52.702Z,103693.31
2023-02-11T03:26:24.556Z,103692.41
2023-02-11T03:28:54.233Z,103678.19
2023-02-11T03:31:27.005Z,103682.66
2023-02-11T03:33:58.492Z,103694.16
2023-02-11T03:36:28.737Z,103685.28
2023-02-11T03:38:58.252Z,103688.84
2023-02-11T03:41:26.163Z,103695.94
2023-02-11T03:43:55.130Z,103687.94
2023-02-11T03:46:25.166Z,103694.13
2023-02-11T03:48:53.921Z,103694.16
2023-02-11T03:51:23.375Z,103692.34
2023-02-11T03:53:51.334Z,103694.16
2023-02-11T03:56:21.679Z,103689.72
2023-02-11T03:58:49.664Z,103695.91
2023-02-11T04:01:17.707Z,103687.03
2023-02-11T04:03:45.613Z,103679.94
2023-02-11T04:06:13.591Z,103681.75
2023-02-11T04:08:42.886Z,103666.63
2023-02-11T04:11:10.910Z,103685.28
2023-02-11T04:13:38.801Z,103684.41
2023-02-11T04:16:06.950Z,103676.41
2023-02-11T04:18:34.848Z,103680.81
2023-02-11T04:21:02.783Z,103683.47
2023-02-11T04:23:30.693Z,103693.22
2023-02-11T04:25:59.992Z,103696.75
2023-02-11T04:28:29.541Z,103687.88
2023-02-11T04:30:57.577Z,103694.09
2023-02-11T04:33:25.570Z,103694.09
2023-02-11T04:35:53.481Z,103688.78
2023-02-11T04:38:23.920Z,103689.69
2023-02-11T04:40:51.928Z,103687.03
2023-02-11T04:43:21.179Z,103694.09
2023-02-11T04:45:49.337Z,103690.59
2023-02-11T04:48:17.569Z,103685.25
2023-02-11T04:50:45.424Z,103697.66
2023-02-11T04:53:13.333Z,103684.38
2023-02-11T04:55:41.256Z,103690.59
2023-02-11T04:58:09.139Z,103697.69
2023-02-11T05:00:38.431Z,103692.38
2023-02-11T05:03:06.363Z,103698.56
2023-02-11T05:05:34.242Z,103705.66
2023-02-11T05:08:02.117Z,103713.66
2023-02-11T05:10:30.013Z,103713.63
2023-02-11T05:12:57.884Z,103713.59
2023-02-11T05:15:25.773Z,103710.06
2023-02-11T05:17:55.046Z,103708.28
2023-02-11T05:20:23.024Z,103710.03
2023-02-11T05:22:50.923Z,103705.63
2023-02-11T05:25:20.588Z,103703.88
2023-02-11T05:27:48.435Z,103702.97
2023-02-11T05:30:16.338Z,103709.19
2023-02-11T05:32:44.213Z,103704.75
2023-02-11T05:35:13.767Z,103701.19
2023-02-11T05:37:41.637Z,103698.53
2023-02-11T05:40:10.057Z,103700.31
2023-02-11T05:42:37.943Z,103702.97
2023-02-11T05:45:06.298Z,103701.19
2023-02-11T05:47:34.220Z,103697.66
2023-02-11T05:50:02.118Z,103711.88
2023-02-11T05:52:31.400Z,103703.88
2023-02-11T05:54:59.353Z,103692.34
2023-02-11T05:57:27.294Z,103696.81
2023-02-11T05:59:55.159Z,103700.34
2023-02-11T06:02:23.095Z,103707.47
2023-02-11T06:04:51.055Z,103704.78
2023-02-11T06:07:19.772Z,103705.66
2023-02-11T06:09:50.315Z,103681.69
2023-02-11T06:12:18.306Z,103701.22
2023-02-11T06:14:46.237Z,103696.81
2023-02-11T06:17:15.709Z,103703.91
2023-02-11T06:19:43.675Z,103708.34
2023-02-11T06:22:11.883Z,103705.69
2023-02-11T06:24:59.962Z,103708.38
2023-02-11T06:27:29.178Z,103708.34
2023-02-11T06:29:57.043Z,103706.59
2023-02-11T06:32:42.630Z,103703.03
2023-02-11T06:35:12.401Z,103697.69
2023-02-11T06:37:40.522Z,103704.81
2023-02-11T06:40:08.813Z,103667.50
2023-02-11T06:42:39.035Z,103673.72
2023-02-11T06:45:09.106Z,103689.75
2023-02-11T06:47:37.007Z,103681.72
2023-02-11T06:50:05.873Z,103676.44
2023-02-11T06:52:33.903Z,103686.19
2023-02-11T06:55:02.178Z,103686.19
2023-02-11T06:57:31.242Z,103686.16
2023-02-11T07:00:00.517Z,103687.97
2023-02-11T07:02:28.481Z,103692.41
2023-02-11T07:04:56.416Z,103689.75
2023-02-11T07:07:24.367Z,103688.84
2023-02-11T07:09:52.210Z,103688.84
2023-02-11T07:12:20.100Z,103695.06
2023-02-11T07:14:47.985Z,103694.16
2023-02-11T07:17:17.300Z,103695.06
2023-02-11T07:19:45.226Z,103706.59
2023-02-11T07:22:13.108Z,103712.81
2023-02-11T07:24:41.089Z,103709.25
2023-02-11T07:27:09.272Z,103714.59
2023-02-11T07:29:37.385Z,103709.25
2023-02-11T07:32:05.507Z,103703.03
2023-02-11T07:34:34.935Z,103703.91
2023-02-11T07:37:02.902Z,103715.44
2023-02-11T07:39:30.798Z,103709.22
2023-02-11T07:41:58.708Z,103708.38
2023-02-11T07:44:26.578Z,103705.69
2023-02-11T07:46:54.595Z,103714.56
2023-02-11T07:49:22.504Z,103711.03
2023-02-11T07:51:52.133Z,103712.78
2023-02-11T07:54:20.004Z,103713.69
2023-02-11T07:56:47.889Z,103716.34
2023-02-11T07:59:15.776Z,103714.59
2023-02-11T08:01:43.771Z,103716.34
2023-02-11T08:04:11.700Z,103715.47
2023-02-11T08:06:42.336Z,103695.91
2023-02-11T08:09:14.812Z,103735.00
2023-02-11T08:11:42.677Z,103726.13
2023-02-11T08:14:10.714Z,103736.75
2023-02-11T08:16:38.929Z,103741.16
2023-02-11T08:19:07.763Z,103740.28
2023-02-11T08:21:35.664Z,103751.84
2023-02-11T08:24:03.549Z,103747.38
2023-02-11T08:26:34.724Z,103739.41
2023-02-11T08:29:03.985Z,103742.97
2023-02-11T08:31:34.018Z,103748.31
2023-02-11T08:34:06.383Z,103750.09
2023-02-11T08:36:35.539Z,103752.72
2023-02-11T08:39:18.062Z,103752.78
2023-02-11T08:41:48.875Z,103745.63
2023-02-11T08:44:16.964Z,103756.28
2023-02-11T08:46:44.892Z,103759.88
2023-02-11T08:49:12.811Z,103756.28
2023-02-11T08:51:40.738Z,103756.28
2023-02-11T08:54:09.905Z,103750.13
2023-02-11T08:56:37.957Z,103748.34
2023-02-11T08:59:07.262Z,103760.78
2023-02-11T09:01:35.346Z,103754.56
2023-02-11T09:04:03.313Z,103756.34
2023-02-11T09:06:31.378Z,103759.91
2023-02-11T09:08:59.304Z,103765.25
2023-02-11T09:11:28.238Z,103763.47
2023-02-11T09:13:56.174Z,103762.56
2023-02-11T09:16:26.283Z,103755.47
2023-02-11T09:19:00.330Z,103745.72
2023-02-11T09:21:28.439Z,103765.25
2023-02-11T09:23:56.333Z,103771.44
2023-02-11T09:26:25.208Z,103770.53
2023-02-11T09:28:53.093Z,103769.69
2023-02-11T09:31:22.634Z,103768.78
2023-02-11T09:33:53.988Z,103770.56
2023-02-11T09:36:22.611Z,103765.25
2023-02-11T09:38:50.697Z,103784.78
2023-02-11T09:41:26.918Z,103791.00
2023-02-11T09:43:55.377Z,103759.91
2023-02-11T09:46:23.331Z,103781.19
2023-02-11T09:48:54.127Z,103770.56
2023-02-11T09:51:23.855Z,103767.88
2023-02-11T09:53:52.417Z,103735.03
2023-02-11T09:56:20.416Z,103778.50
2023-02-11T09:58:48.352Z,103778.50
2023-02-11T10:01:21.733Z,103782.06
2023-02-11T10:04:12.177Z,103786.47
2023-02-11T10:06:42.089Z,103783.81
2023-02-11T10:09:17.590Z,103795.34
2023-02-11T10:11:50.517Z,103798.88
2023-02-11T10:14:27.091Z,103791.78
2023-02-11T10:17:00.166Z,103786.44
2023-02-11T10:19:36.419Z,103799.78
2023-02-11T10:22:08.326Z,103805.97
2023-02-11T10:24:36.272Z,103783.78
2023-02-11T10:27:06.460Z,103801.53
2023-02-11T10:29:37.105Z,103795.28
2023-02-11T10:32:08.165Z,103799.75
2023-02-11T10:34:39.217Z,103795.28
2023-02-11T10:37:07.252Z,103800.59
2023-02-11T10:39:35.332Z,103796.16
2023-02-11T10:42:04.014Z,103781.06
2023-02-11T10:44:33.232Z,103792.53
2023-02-11T10:47:04.359Z,103797.00
2023-02-11T10:49:38.250Z,103812.09
2023-02-11T10:52:19.910Z,103813.84
2023-02-11T10:55:01.909Z,103812.03
2023-02-11T10:57:32.086Z,103807.56
2023-02-11T11:00:01.571Z,103791.56
2023-02-11T11:02:32.218Z,103805.72
2023-02-11T11:05:02.545Z,103800.34
2023-02-11T11:07:31.038Z,103783.47
2023-02-11T11:10:00.285Z,103794.06
2023-02-11T11:12:36.501Z,103804.72
2023-02-11T11:15:16.554Z,103795.81
2023-02-11T11:17:44.551Z,103793.16
2023-02-11T11:20:21.302Z,103778.97
2023-02-11T11:22:49.394Z,103790.44
2023-02-11T11:25:24.797Z,103789.56
2023-02-11T11:27:52.776Z,103790.44
2023-02-11T11:30:20.801Z,103787.81
2023-02-11T11:32:48.726Z,103792.22
2023-02-11T11:35:26.438Z,103779.81
2023-02-11T11:37:55.371Z,103790.41
2023-02-11T11:40:24.577Z,103794.81
2023-02-11T11:43:04.756Z,103770.84
2023-02-11T11:45:32.623Z,103778.75
2023-02-11T11:48:00.866Z,103785.84
2023-02-11T11:50:32.098Z,103768.06
2023-02-11T11:53:04.201Z,103784.94
2023-02-11T11:55:35.138Z,103783.97
2023-02-11T11:58:03.000Z,103750.16
2023-02-11T12:00:36.392Z,103784.78
2023-02-11T12:03:27.204Z,103777.63
2023-02-11T12:06:04.622Z,103779.38
2023-02-11T12:08:35.916Z,103788.25
2023-02-11T12:11:07.967Z,103778.41
2023-02-11T12:13:45.281Z,103781.94
2023-02-11T12:16:20.495Z,103785.47
2023-02-11T12:19:07.833Z,103772.97
2023-02-11T12:21:41.005Z,103773.81
2023-02-11T12:24:17.623Z,103762.22
2023-02-11T12:26:46.711Z,103757.72
2023-02-11T12:29:20.633Z,103775.53
2023-02-11T12:31:56.229Z,103767.41
2023-02-11T12:34:50.579Z,103771.84
2023-02-11T12:37:31.067Z,103758.44
2023-02-11T12:40:02.703Z,103764.66
2023-02-11T12:42:53.288Z,103753.06
2023-02-11T12:45:27.521Z,103767.19
2023-02-11T12:48:06.673Z,103758.22
2023-02-11T12:50:37.305Z,103734.22
2023-02-11T12:53:25.346Z,103753.53
2023-02-11T12:55:55.718Z,103719.72
2023-02-11T12:58:35.467Z,103747.16
2023-02-11T13:01:13.670Z,103739.00
2023-02-11T13:03:42.849Z,103723.91
2023-02-11T13:06:12.096Z,103694.59
2023-02-11T13:08:42.242Z,103737.13
2023-02-11T13:11:14.385Z,103739.69
2023-02-11T13:13:48.553Z,103725.44
2023-02-11T13:16:20.723Z,103735.13
2023-02-11T13:18:51.822Z,103728.78
2023-02-11T13:21:35.055Z,103728.72
2023-02-11T13:24:09.270Z,103731.38
2023-02-11T13:26:41.646Z,103726.84
2023-02-11T13:29:17.279Z,103705.38
2023-02-11T13:31:53.777Z,103715.84
2023-02-11T13:34:26.341Z,103698.72
2023-02-11T13:36:57.492Z,103711.91
2023-02-11T13:39:26.812Z,103711.81
2023-02-11T13:42:02.827Z,103706.38
2023-02-11T13:44:30.778Z,103703.59
2023-02-11T13:47:01.369Z,103700.81
2023-02-11T13:49:35.352Z,103707.78
2023-02-11T13:52:04.340Z,103689.84
2023-02-11T13:54:35.173Z,103702.19
2023-02-11T13:57:34.808Z,103693.16
2023-02-11T14:00:03.692Z,103677.44
2023-02-11T14:02:50.667Z,103695.97
2023-02-11T14:05:44.678Z,103702.19
2023-02-11T14:08:39.346Z,103678.44
2023-02-11T14:11:12.424Z,103696.28
2023-02-11T14:14:15.125Z,103701.47
2023-02-11T14:17:22.506Z,103690.75
2023-02-11T14:19:50.809Z,103675.69
2023-02-11T14:22:20.728Z,103691.66
2023-02-11T14:24:53.317Z,103686.25
2023-02-11T14:27:28.755Z,103655.13
2023-02-11T14:30:09.275Z,103670.94
2023-02-11T14:32:42.689Z,103669.91
2023-02-11T14:35:11.913Z,103677.91
2023-02-11T14:37:50.366Z,103664.63
2023-02-11T14:40:27.362Z,103670.16
2023-02-11T14:42:56.936Z,103663.31
2023-02-11T14:45:28.982Z,103659.75
2023-02-11T14:47:59.358Z,103669.69
2023-02-11T14:50:28.130Z,103649.34
2023-02-11T14:52:57.743Z,103675.13
2023-02-11T14:55:30.274Z,103681.63
2023-02-11T14:58:13.812Z,103671.94
2023-02-11T15:00:52.746Z,103667.66
2023-02-11T15:03:31.589Z,103671.31
2023-02-11T15:06:00.131Z,103683.03
2023-02-11T15:08:28.222Z,103671.53
2023-02-11T15:10:59.956Z,103664.47
2023-02-11T15:13:32.035Z,103611.50
2023-02-11T15:16:02.158Z,103632.78
2023-02-11T15:18:35.299Z,103679.81
2023-02-11T15:21:03.222Z,103662.91
2023-02-11T15:23:31.092Z,103668.31
2023-02-11T15:26:03.214Z,103670.22
2023-02-11T15:28:33.644Z,103667.56
2023-02-11T15:31:02.786Z,103670.22
2023-02-11T15:33:32.264Z,103675.53
2023-02-11T15:36:00.682Z,103672.00
2023-02-11T15:38:29.895Z,103682.78
2023-02-11T15:40:58.575Z,103676.63
2023-02-11T15:43:26.447Z,103674.03
2023-02-11T15:45:58.678Z,103669.56
2023-02-11T15:48:29.046Z,103667.84
2023-02-11T15:50:58.693Z,103672.25
2023-02-11T15:53:30.517Z,103680.34
2023-02-11T15:56:02.006Z,103681.28
2023-02-11T15:58:30.150Z,103678.69
2023-02-11T16:01:00.037Z,103690.34
2023-02-11T16:03:32.390Z,103683.22
2023-02-11T16:06:18.739Z,103687.75
2023-02-11T16:08:58.025Z,103692.31
2023-02-11T16:11:27.793Z,103699.56
2023-02-11T16:13:55.773Z,103676.53
2023-02-11T16:16:25.687Z,103693.44
2023-02-11T16:19:04.261Z,103698.78
2023-02-11T16:21:35.443Z,103665.97
2023-02-11T16:24:03.919Z,103701.53
2023-02-11T16:26:33.793Z,103687.31
2023-02-11T16:29:11.251Z,103686.44
2023-02-11T16:31:42.217Z,103678.47
2023-02-11T16:34:15.145Z,103682.94
2023-02-11T16:36:43.034Z,103685.66
2023-02-11T16:39:11.073Z,103681.28
2023-02-11T16:41:38.953Z,103683.13
2023-02-11T16:44:06.902Z,103689.34
2023-02-11T16:46:34.834Z,103685.78
2023-02-11T16:49:09.245Z,103694.75
2023-02-11T16:51:39.426Z,103691.22
2023-02-11T16:54:07.354Z,103690.38
2023-02-11T16:56:35.300Z,103690.41
2023-02-11T16:59:03.277Z,103692.22
2023-02-11T17:01:31.301Z,103688.69
2023-02-11T17:03:59.194Z,103694.06
2023-02-11T17:06:28.721Z,103694.09
2023-02-11T17:08:56.690Z,103701.22
2023-02-11T17:11:24.587Z,103692.34
2023-02-11T17:13:52.420Z,103701.31
2023-02-11T17:16:21.323Z,103699.56
2023-02-11T17:18:49.346Z,103695.19
2023-02-11T17:21:17.249Z,103699.66
2023-02-11T17:23:46.892Z,103707.75
2023-02-11T17:26:14.775Z,103706.91
2023-02-11T17:28:43.732Z,103707.84
2023-02-11T17:31:11.737Z,103701.66
2023-02-11T17:33:39.871Z,103697.22
2023-02-11T17:36:08.633Z,103701.75
2023-02-11T17:38:36.984Z,103700.00
2023-02-11T17:41:06.761Z,103700.94
2023-02-11T17:43:34.623Z,103702.75
2023-02-11T17:46:02.665Z,103694.78
2023-02-11T17:48:30.725Z,103703.72
2023-02-11T17:50:58.651Z,103705.50
2023-02-11T17:53:26.575Z,103700.22
2023-02-11T17:55:56.039Z,103706.50
2023-02-11T17:58:25.277Z,103717.16
2023-02-11T18:00:53.229Z,103711.88
2023-02-11T18:03:21.147Z,103722.56
2023-02-11T18:05:49.204Z,103715.44
2023-02-11T18:08:17.211Z,103705.72
2023-02-11T18:10:45.270Z,103714.59
2023-02-11T18:13:13.381Z,103719.94
2023-02-11T18:15:42.636Z,103719.06
2023-02-11T18:18:10.543Z,103716.38
2023-02-11T18:20:38.421Z,103706.66
2023-02-11T18:23:06.332Z,103727.06
2023-02-11T18:25:34.301Z,103731.50
2023-02-11T18:28:02.547Z,103733.28
2023-02-11T18:30:30.657Z,103735.03
2023-02-11T18:32:59.947Z,103741.25
2023-02-11T18:35:27.817Z,103743.91
2023-02-11T18:37:55.691Z,103753.69
2023-02-11T18:40:23.611Z,103746.59
2023-02-11T18:42:51.508Z,103736.81
2023-02-11T18:45:19.523Z,103732.38
2023-02-11T18:47:47.409Z,103755.47
2023-02-11T18:50:16.800Z,103749.25
2023-02-11T18:52:44.799Z,103748.38
2023-02-11T18:55:12.716Z,103752.78
2023-02-11T18:57:40.606Z,103760.78
2023-02-11T19:00:10.090Z,103754.56
2023-02-11T19:02:38.055Z,103754.56
2023-02-11T19:05:06.834Z,103758.13
2023-02-11T19:07:36.538Z,103756.34
2023-02-11T19:10:04.806Z,103752.78
2023-02-11T19:12:33.177Z,103756.34
2023-02-11T19:15:01.579Z,103761.69
2023-02-11T19:17:29.525Z,103764.34
2023-02-11T19:19:57.440Z,103751.03
2023-02-11T19:22:25.337Z,103750.13
2023-02-11T19:24:54.574Z,103755.44
2023-02-11T19:27:22.452Z,103749.25
2023-02-11T19:29:50.320Z,103747.47
2023-02-11T19:32:18.243Z,103745.69
2023-02-11T19:34:46.206Z,103746.59
2023-02-11T19:37:14.230Z,103746.56
2023-02-11T19:39:42.238Z,103746.59
2023-02-11T19:42:11.568Z,103746.59
2023-02-11T19:44:39.494Z,103738.59
2023-02-11T19:47:07.893Z,103745.69
2023-02-11T19:49:35.823Z,103743.91
2023-02-11T19:52:03.683Z,103739.47
2023-02-11T19:54:40.486Z,103735.03
2023-02-11T19:57:08.383Z,103743.91
2023-02-11T19:59:37.914Z,103751.00
2023-02-11T20:02:05.815Z,103745.69
2023-02-11T20:04:33.720Z,103748.28
2023-02-11T20:07:01.598Z,103748.31
2023-02-11T20:09:31.180Z,103746.53
2023-02-11T20:11:59.172Z,103754.50
2023-02-11T20:14:28.149Z,103741.19
2023-02-11T20:16:57.647Z,103734.97
2023-02-11T20:19:25.553Z,103739.41
2023-02-11T20:21:55.749Z,103739.41
2023-02-11T20:24:23.922Z,103742.06
2023-02-11T20:26:55.530Z,103731.44
2023-02-11T20:29:23.794Z,103730.53
2023-02-11T20:31:51.854Z,103723.41
2023-02-11T20:34:21.994Z,103727.81
2023-02-11T20:36:52.074Z,103734.91
2023-02-11T20:39:21.902Z,103733.97
2023-02-11T20:41:50.320Z,103729.53
2023-02-11T20:44:18.207Z,103740.16
2023-02-11T20:46:47.105Z,103739.22
2023-02-11T20:49:15.739Z,103731.19
2023-02-11T20:51:45.095Z,103727.63
2023-02-11T20:54:13.758Z,103729.31
2023-02-11T20:56:41.678Z,103724.84
2023-02-11T20:59:09.564Z,103729.22
2023-02-11T21:01:40.310Z,103727.41
2023-02-11T21:04:10.857Z,103722.94
2023-02-11T21:06:39.768Z,103733.50
2023-02-11T21:09:09.759Z,103726.41
2023-02-11T21:11:37.661Z,103726.41
2023-02-11T21:14:05.489Z,103731.72
2023-02-11T21:16:33.383Z,103730.81
2023-02-11T21:19:02.868Z,103739.72
2023-02-11T21:21:30.894Z,103735.25
2023-02-11T21:23:58.923Z,103730.84
2023-02-11T21:26:28.173Z,103742.38
2023-02-11T21:28:56.155Z,103745.03
2023-02-11T21:31:26.139Z,103737.03
2023-02-11T21:33:55.162Z,103737.97
2023-02-11T21:36:23.149Z,103748.59
2023-02-11T21:38:51.146Z,103744.19
2023-02-11T21:41:19.086Z,103739.78
2023-02-11T21:43:48.386Z,103750.41
2023-02-11T21:46:16.720Z,103751.31
2023-02-11T21:48:44.677Z,103757.50
2023-02-11T21:51:14.015Z,103751.31
2023-02-11T21:53:41.927Z,103750.41
2023-02-11T21:56:10.993Z,103746.88
2023-02-11T21:58:38.973Z,103742.47
2023-02-11T22:01:13.458Z,103746.84
2023-02-11T22:03:41.408Z,103751.19
2023-02-11T22:06:10.079Z,103748.50
2023-02-11T22:08:38.017Z,103739.63
2023-02-11T22:11:06.374Z,103739.63
2023-02-11T22:13:34.252Z,103747.56
2023-02-11T22:16:02.813Z,103737.81
2023-02-11T22:18:32.072Z,103741.34
2023-02-11T22:21:00.960Z,103751.91
2023-02-11T22:23:29.262Z,103745.72
2023-02-11T22:25:57.319Z,103742.97
2023-02-11T22:28:26.195Z,103755.31
2023-02-11T22:30:55.373Z,103765.00
2023-02-11T22:33:23.543Z,103757.88
2023-02-11T22:35:58.671Z,103757.81
2023-02-11T22:38:26.883Z,103762.19
2023-02-11T22:40:54.780Z,103767.44
2023-02-11T22:43:22.696Z,103756.75
2023-02-11T22:45:50.789Z,103767.41
2023-02-11T22:48:21.378Z,103767.41
2023-02-11T22:50:52.102Z,103764.75
2023-02-11T22:53:20.115Z,103762.09
2023-02-11T22:55:47.976Z,103751.47
2023-02-11T22:58:16.310Z,103757.69
2023-02-11T23:00:44.203Z,103761.25
2023-02-11T23:03:12.206Z,103759.50
2023-02-11T23:05:40.237Z,103771.00
2023-02-11T23:08:10.015Z,103746.06
2023-02-11T23:10:38.008Z,103750.53
2023-02-11T23:13:05.977Z,103755.84
2023-02-11T23:15:33.986Z,103759.34
2023-02-11T23:18:01.959Z,103750.44
2023-02-11T23:20:29.900Z,103745.06
2023-02-11T23:22:57.772Z,103756.53
2023-02-11T23:25:27.168Z,103756.47
2023-02-11T23:27:55.097Z,103755.50
2023-02-11T23:30:23.164Z,103766.97
2023-02-11T23:32:51.092Z,103768.69
2023-02-11T23:35:23.228Z,103752.75
2023-02-11T23:37:51.545Z,103751.91
2023-02-11T23:40:19.736Z,103762.50
2023-02-11T23:42:49.147Z,103765.13
2023-02-11T23:45:17.275Z,103750.06
2023-02-11T23:47:45.189Z,103757.16
2023-02-11T23:50:13.358Z,103754.47
2023-02-11T23:52:41.238Z,103763.25
2023-02-11T23:55:09.436Z,103765.00
2023-02-11T23:57:37.338Z,103757.88
